Terminal Aerodrome Forecast
Issued by NWS

Current Version | Previous Version | Text Only | Print | Product List | Glossary On
Versions: 1 2 3 4 5 6 7 8 9 10 11 12 13
000
FTUS44 KLZK 282300
TAFHOT
TAF
KHOT 282335Z 2900/2924 19005KT P6SM SCT250 WS020/20035KT
     FM290900 20008KT P6SM OVC012 WS020/22045KT
     FM291600 22014G24KT P6SM BKN030 WS020/21040KT=

USA.gov is the U.S. government's official web portal to all federal, state and local government web resources and services.